sensor_id;sensor_type;location;lat;lon;timestamp;P1;durP1;ratioP1;P2;durP2;ratioP2
8665;SDS011;4370;48.916;8.380;2022-09-01T00:01:59;12.70;;;11.10;;
8665;SDS011;4370;48.916;8.380;2022-09-01T00:04:33;15.23;;;12.07;;
8665;SDS011;4370;48.916;8.380;2022-09-01T00:07:03;12.97;;;11.53;;
8665;SDS011;4370;48.916;8.380;2022-09-01T00:09:29;15.27;;;11.23;;
8665;SDS011;4370;48.916;8.380;2022-09-01T00:11:56;12.83;;;11.47;;
8665;SDS011;4370;48.916;8.380;2022-09-01T00:14:24;13.67;;;11.23;;
8665;SDS011;4370;48.916;8.380;2022-09-01T00:16:52;12.30;;;11.00;;
8665;SDS011;4370;48.916;8.380;2022-09-01T00:19:18;13.50;;;10.77;;
8665;SDS011;4370;48.916;8.380;2022-09-01T00:21:45;13.93;;;11.77;;
8665;SDS011;4370;48.916;8.380;2022-09-01T00:24:12;13.63;;;12.30;;
8665;SDS011;4370;48.916;8.380;2022-09-01T00:26:39;13.73;;;12.03;;
8665;SDS011;4370;48.916;8.380;2022-09-01T00:29:05;12.97;;;11.13;;
8665;SDS011;4370;48.916;8.380;2022-09-01T00:31:31;14.30;;;12.77;;
8665;SDS011;4370;48.916;8.380;2022-09-01T00:33:58;17.27;;;12.50;;
8665;SDS011;4370;48.916;8.380;2022-09-01T00:36:24;13.80;;;12.40;;
8665;SDS011;4370;48.916;8.380;2022-09-01T00:38:50;13.83;;;12.50;;
8665;SDS011;4370;48.916;8.380;2022-09-01T00:41:18;13.73;;;12.40;;
8665;SDS011;4370;48.916;8.380;2022-09-01T00:43:53;13.33;;;11.93;;
8665;SDS011;4370;48.916;8.380;2022-09-01T00:46:22;13.93;;;11.30;;
8665;SDS011;4370;48.916;8.380;2022-09-01T00:48:52;12.33;;;11.03;;
8665;SDS011;4370;48.916;8.380;2022-09-01T00:51:21;12.77;;;11.47;;
8665;SDS011;4370;48.916;8.380;2022-09-01T00:53:47;15.23;;;11.80;;
8665;SDS011;4370;48.916;8.380;2022-09-01T00:56:14;13.43;;;11.47;;
8665;SDS011;4370;48.916;8.380;2022-09-01T00:58:40;12.87;;;11.57;;
8665;SDS011;4370;48.916;8.380;2022-09-01T01:01:06;13.63;;;12.07;;
8665;SDS011;4370;48.916;8.380;2022-09-01T01:03:34;12.57;;;11.07;;
8665;SDS011;4370;48.916;8.380;2022-09-01T01:06:01;14.63;;;11.80;;
8665;SDS011;4370;48.916;8.380;2022-09-01T01:08:33;14.43;;;11.70;;
8665;SDS011;4370;48.916;8.380;2022-09-01T01:11:22;12.57;;;11.27;;
8665;SDS011;4370;48.916;8.380;2022-09-01T01:13:56;13.43;;;11.30;;
8665;SDS011;4370;48.916;8.380;2022-09-01T01:16:25;13.53;;;12.13;;
8665;SDS011;4370;48.916;8.380;2022-09-01T01:18:52;13.00;;;11.70;;
8665;SDS011;4370;48.916;8.380;2022-09-01T01:21:19;12.97;;;11.67;;
8665;SDS011;4370;48.916;8.380;2022-09-01T01:26:51;17.10;;;11.40;;
8665;SDS011;4370;48.916;8.380;2022-09-01T01:29:22;14.07;;;11.60;;
8665;SDS011;4370;48.916;8.380;2022-09-01T01:31:49;13.10;;;11.73;;
8665;SDS011;4370;48.916;8.380;2022-09-01T01:34:17;14.47;;;11.03;;
8665;SDS011;4370;48.916;8.380;2022-09-01T01:36:44;11.87;;;10.77;;
8665;SDS011;4370;48.916;8.380;2022-09-01T01:39:12;11.67;;;10.47;;
8665;SDS011;4370;48.916;8.380;2022-09-01T01:41:46;13.03;;;11.50;;
8665;SDS011;4370;48.916;8.380;2022-09-01T01:44:16;12.80;;;11.27;;
8665;SDS011;4370;48.916;8.380;2022-09-01T01:46:47;12.83;;;11.53;;
8665;SDS011;4370;48.916;8.380;2022-09-01T01:49:15;13.20;;;11.80;;
8665;SDS011;4370;48.916;8.380;2022-09-01T01:51:44;12.57;;;11.33;;
8665;SDS011;4370;48.916;8.380;2022-09-01T01:54:11;16.93;;;12.23;;
8665;SDS011;4370;48.916;8.380;2022-09-01T01:56:38;15.40;;;12.53;;
8665;SDS011;4370;48.916;8.380;2022-09-01T01:59:06;12.53;;;11.23;;
8665;SDS011;4370;48.916;8.380;2022-09-01T02:01:37;12.53;;;11.33;;
8665;SDS011;4370;48.916;8.380;2022-09-01T02:04:06;15.50;;;11.80;;
8665;SDS011;4370;48.916;8.380;2022-09-01T02:06:34;12.33;;;11.13;;
8665;SDS011;4370;48.916;8.380;2022-09-01T02:09:01;12.43;;;11.17;;
8665;SDS011;4370;48.916;8.380;2022-09-01T02:11:29;14.23;;;11.50;;
8665;SDS011;4370;48.916;8.380;2022-09-01T02:13:57;15.47;;;11.80;;
8665;SDS011;4370;48.916;8.380;2022-09-01T02:16:25;13.33;;;11.23;;
8665;SDS011;4370;48.916;8.380;2022-09-01T02:18:52;12.73;;;11.43;;
8665;SDS011;4370;48.916;8.380;2022-09-01T02:21:18;12.47;;;11.27;;
8665;SDS011;4370;48.916;8.380;2022-09-01T02:23:47;12.10;;;10.80;;
8665;SDS011;4370;48.916;8.380;2022-09-01T02:26:14;13.43;;;11.87;;
8665;SDS011;4370;48.916;8.380;2022-09-01T02:28:43;14.13;;;12.53;;
8665;SDS011;4370;48.916;8.380;2022-09-01T02:31:13;11.87;;;10.67;;
8665;SDS011;4370;48.916;8.380;2022-09-01T02:33:40;13.50;;;12.10;;
8665;SDS011;4370;48.916;8.380;2022-09-01T02:36:10;13.40;;;12.10;;
8665;SDS011;4370;48.916;8.380;2022-09-01T02:38:39;14.07;;;12.67;;
8665;SDS011;4370;48.916;8.380;2022-09-01T02:41:11;14.80;;;12.37;;
8665;SDS011;4370;48.916;8.380;2022-09-01T02:43:38;13.27;;;11.70;;
8665;SDS011;4370;48.916;8.380;2022-09-01T02:46:04;18.37;;;12.47;;
8665;SDS011;4370;48.916;8.380;2022-09-01T02:48:32;13.30;;;11.90;;
8665;SDS011;4370;48.916;8.380;2022-09-01T02:51:03;13.80;;;12.07;;
8665;SDS011;4370;48.916;8.380;2022-09-01T02:53:32;13.57;;;12.17;;
8665;SDS011;4370;48.916;8.380;2022-09-01T02:55:59;12.67;;;11.40;;
8665;SDS011;4370;48.916;8.380;2022-09-01T02:58:27;15.07;;;13.13;;
8665;SDS011;4370;48.916;8.380;2022-09-01T03:00:58;15.67;;;13.57;;
8665;SDS011;4370;48.916;8.380;2022-09-01T03:03:24;15.53;;;13.90;;
8665;SDS011;4370;48.916;8.380;2022-09-01T03:05:50;14.57;;;13.00;;
8665;SDS011;4370;48.916;8.380;2022-09-01T03:08:19;14.53;;;12.80;;
8665;SDS011;4370;48.916;8.380;2022-09-01T03:10:46;15.17;;;13.60;;
8665;SDS011;4370;48.916;8.380;2022-09-01T03:13:13;19.77;;;14.90;;
8665;SDS011;4370;48.916;8.380;2022-09-01T03:15:42;17.03;;;14.93;;
8665;SDS011;4370;48.916;8.380;2022-09-01T03:18:09;17.73;;;13.77;;
8665;SDS011;4370;48.916;8.380;2022-09-01T03:20:38;15.47;;;13.40;;
8665;SDS011;4370;48.916;8.380;2022-09-01T03:23:08;15.30;;;13.70;;
8665;SDS011;4370;48.916;8.380;2022-09-01T03:25:35;18.23;;;14.30;;
8665;SDS011;4370;48.916;8.380;2022-09-01T03:28:04;17.57;;;14.27;;
8665;SDS011;4370;48.916;8.380;2022-09-01T03:30:32;17.90;;;15.37;;
8665;SDS011;4370;48.916;8.380;2022-09-01T03:33:00;17.13;;;15.27;;
8665;SDS011;4370;48.916;8.380;2022-09-01T03:35:26;18.50;;;15.47;;
8665;SDS011;4370;48.916;8.380;2022-09-01T03:37:56;16.83;;;15.13;;
8665;SDS011;4370;48.916;8.380;2022-09-01T03:40:23;21.97;;;16.90;;
8665;SDS011;4370;48.916;8.380;2022-09-01T03:42:51;18.37;;;16.30;;
8665;SDS011;4370;48.916;8.380;2022-09-01T03:45:17;16.60;;;14.90;;
8665;SDS011;4370;48.916;8.380;2022-09-01T03:47:44;19.13;;;15.10;;
8665;SDS011;4370;48.916;8.380;2022-09-01T03:50:15;16.30;;;14.13;;
8665;SDS011;4370;48.916;8.380;2022-09-01T03:52:44;16.60;;;13.47;;
8665;SDS011;4370;48.916;8.380;2022-09-01T03:55:23;15.67;;;14.07;;
8665;SDS011;4370;48.916;8.380;2022-09-01T03:57:59;18.53;;;14.87;;
8665;SDS011;4370;48.916;8.380;2022-09-01T04:00:27;14.47;;;12.73;;
8665;SDS011;4370;48.916;8.380;2022-09-01T04:02:55;15.20;;;13.60;;
8665;SDS011;4370;48.916;8.380;2022-09-01T04:05:23;15.20;;;12.93;;
8665;SDS011;4370;48.916;8.380;2022-09-01T04:07:53;16.17;;;14.23;;
8665;SDS011;4370;48.916;8.380;2022-09-01T04:10:28;15.87;;;14.17;;
8665;SDS011;4370;48.916;8.380;2022-09-01T04:12:58;16.60;;;14.60;;
8665;SDS011;4370;48.916;8.380;2022-09-01T04:15:25;14.70;;;13.20;;
8665;SDS011;4370;48.916;8.380;2022-09-01T04:17:52;14.83;;;13.33;;
8665;SDS011;4370;48.916;8.380;2022-09-01T04:20:40;12.80;;;11.50;;
8665;SDS011;4370;48.916;8.380;2022-09-01T04:23:21;13.33;;;11.93;;
8665;SDS011;4370;48.916;8.380;2022-09-01T04:25:59;13.70;;;12.20;;
8665;SDS011;4370;48.916;8.380;2022-09-01T04:28:32;21.93;;;17.23;;
8665;SDS011;4370;48.916;8.380;2022-09-01T04:31:02;27.23;;;20.73;;
8665;SDS011;4370;48.916;8.380;2022-09-01T04:33:32;25.53;;;19.07;;
8665;SDS011;4370;48.916;8.380;2022-09-01T04:38:43;23.40;;;18.27;;
8665;SDS011;4370;48.916;8.380;2022-09-01T04:41:09;21.30;;;17.60;;
8665;SDS011;4370;48.916;8.380;2022-09-01T04:43:40;23.20;;;17.60;;
8665;SDS011;4370;48.916;8.380;2022-09-01T04:46:06;22.03;;;18.23;;
8665;SDS011;4370;48.916;8.380;2022-09-01T04:48:32;30.83;;;21.47;;
8665;SDS011;4370;48.916;8.380;2022-09-01T04:50:59;22.03;;;18.37;;
8665;SDS011;4370;48.916;8.380;2022-09-01T04:53:25;22.20;;;17.27;;
8665;SDS011;4370;48.916;8.380;2022-09-01T04:55:51;23.93;;;19.17;;
8665;SDS011;4370;48.916;8.380;2022-09-01T04:58:19;28.13;;;20.63;;
8665;SDS011;4370;48.916;8.380;2022-09-01T05:00:46;19.63;;;16.47;;
8665;SDS011;4370;48.916;8.380;2022-09-01T05:03:16;19.10;;;16.17;;
8665;SDS011;4370;48.916;8.380;2022-09-01T05:05:45;24.03;;;18.37;;
8665;SDS011;4370;48.916;8.380;2022-09-01T05:08:12;24.77;;;19.73;;
8665;SDS011;4370;48.916;8.380;2022-09-01T05:10:45;33.33;;;24.50;;
8665;SDS011;4370;48.916;8.380;2022-09-01T05:13:14;30.97;;;23.47;;
8665;SDS011;4370;48.916;8.380;2022-09-01T05:15:41;28.47;;;22.30;;
8665;SDS011;4370;48.916;8.380;2022-09-01T05:20:47;35.33;;;25.23;;
8665;SDS011;4370;48.916;8.380;2022-09-01T05:23:14;31.90;;;22.47;;
8665;SDS011;4370;48.916;8.380;2022-09-01T05:25:45;26.50;;;20.20;;
8665;SDS011;4370;48.916;8.380;2022-09-01T05:28:17;26.83;;;21.10;;
8665;SDS011;4370;48.916;8.380;2022-09-01T05:30:44;35.80;;;25.40;;
8665;SDS011;4370;48.916;8.380;2022-09-01T05:33:11;22.50;;;17.10;;
8665;SDS011;4370;48.916;8.380;2022-09-01T05:35:51;18.77;;;15.70;;
8665;SDS011;4370;48.916;8.380;2022-09-01T05:38:21;20.67;;;16.70;;
8665;SDS011;4370;48.916;8.380;2022-09-01T05:40:59;19.30;;;16.23;;
8665;SDS011;4370;48.916;8.380;2022-09-01T05:43:28;24.03;;;19.87;;
8665;SDS011;4370;48.916;8.380;2022-09-01T05:45:55;23.17;;;18.87;;
8665;SDS011;4370;48.916;8.380;2022-09-01T05:48:22;26.63;;;21.77;;
8665;SDS011;4370;48.916;8.380;2022-09-01T05:50:48;23.13;;;19.27;;
8665;SDS011;4370;48.916;8.380;2022-09-01T05:53:21;21.33;;;16.77;;
8665;SDS011;4370;48.916;8.380;2022-09-01T05:55:49;22.90;;;17.73;;
8665;SDS011;4370;48.916;8.380;2022-09-01T05:58:18;23.23;;;17.50;;
8665;SDS011;4370;48.916;8.380;2022-09-01T06:00:45;19.97;;;17.80;;
8665;SDS011;4370;48.916;8.380;2022-09-01T06:03:13;24.90;;;19.90;;
8665;SDS011;4370;48.916;8.380;2022-09-01T06:05:41;20.70;;;16.97;;
8665;SDS011;4370;48.916;8.380;2022-09-01T06:08:09;22.87;;;18.53;;
8665;SDS011;4370;48.916;8.380;2022-09-01T06:10:40;17.97;;;15.97;;
8665;SDS011;4370;48.916;8.380;2022-09-01T06:13:09;17.97;;;15.50;;
8665;SDS011;4370;48.916;8.380;2022-09-01T06:15:35;17.00;;;14.77;;
8665;SDS011;4370;48.916;8.380;2022-09-01T06:18:05;15.97;;;14.07;;
8665;SDS011;4370;48.916;8.380;2022-09-01T06:20:37;15.30;;;13.63;;
8665;SDS011;4370;48.916;8.380;2022-09-01T06:23:05;13.67;;;12.27;;
8665;SDS011;4370;48.916;8.380;2022-09-01T06:25:31;16.23;;;14.00;;
8665;SDS011;4370;48.916;8.380;2022-09-01T06:27:56;16.87;;;13.00;;
8665;SDS011;4370;48.916;8.380;2022-09-01T06:30:24;13.43;;;12.03;;
8665;SDS011;4370;48.916;8.380;2022-09-01T06:32:51;12.50;;;11.13;;
8665;SDS011;4370;48.916;8.380;2022-09-01T06:35:18;12.60;;;11.30;;
8665;SDS011;4370;48.916;8.380;2022-09-01T06:37:46;11.67;;;10.37;;
8665;SDS011;4370;48.916;8.380;2022-09-01T06:40:13;13.27;;;11.20;;
8665;SDS011;4370;48.916;8.380;2022-09-01T06:42:43;13.93;;;10.70;;
8665;SDS011;4370;48.916;8.380;2022-09-01T06:45:11;11.57;;;10.37;;
8665;SDS011;4370;48.916;8.380;2022-09-01T06:47:38;10.17;;;9.17;;
8665;SDS011;4370;48.916;8.380;2022-09-01T06:50:06;12.50;;;8.87;;
8665;SDS011;4370;48.916;8.380;2022-09-01T06:52:32;10.80;;;9.10;;
8665;SDS011;4370;48.916;8.380;2022-09-01T06:54:58;9.53;;;8.53;;
8665;SDS011;4370;48.916;8.380;2022-09-01T06:57:24;8.97;;;7.23;;
8665;SDS011;4370;48.916;8.380;2022-09-01T06:59:52;8.30;;;7.50;;
8665;SDS011;4370;48.916;8.380;2022-09-01T07:02:18;9.67;;;6.23;;
8665;SDS011;4370;48.916;8.380;2022-09-01T07:04:46;12.33;;;7.00;;
8665;SDS011;4370;48.916;8.380;2022-09-01T07:07:14;6.95;;;5.47;;
8665;SDS011;4370;48.916;8.380;2022-09-01T07:09:39;6.50;;;5.28;;
8665;SDS011;4370;48.916;8.380;2022-09-01T07:12:06;6.07;;;4.93;;
8665;SDS011;4370;48.916;8.380;2022-09-01T07:14:31;5.55;;;4.32;;
8665;SDS011;4370;48.916;8.380;2022-09-01T07:16:57;7.70;;;4.68;;
8665;SDS011;4370;48.916;8.380;2022-09-01T07:19:23;4.45;;;4.00;;
8665;SDS011;4370;48.916;8.380;2022-09-01T07:21:50;6.10;;;4.55;;
8665;SDS011;4370;48.916;8.380;2022-09-01T07:24:16;4.90;;;4.40;;
8665;SDS011;4370;48.916;8.380;2022-09-01T07:26:42;4.50;;;4.10;;
8665;SDS011;4370;48.916;8.380;2022-09-01T07:29:13;4.63;;;4.22;;
8665;SDS011;4370;48.916;8.380;2022-09-01T07:31:40;4.50;;;3.70;;
8665;SDS011;4370;48.916;8.380;2022-09-01T07:34:08;8.05;;;4.35;;
8665;SDS011;4370;48.916;8.380;2022-09-01T07:36:37;4.32;;;3.60;;
8665;SDS011;4370;48.916;8.380;2022-09-01T07:39:08;4.65;;;4.15;;
8665;SDS011;4370;48.916;8.380;2022-09-01T07:41:34;5.32;;;3.80;;
8665;SDS011;4370;48.916;8.380;2022-09-01T07:44:00;4.65;;;3.83;;
8665;SDS011;4370;48.916;8.380;2022-09-01T07:46:29;4.90;;;4.03;;
8665;SDS011;4370;48.916;8.380;2022-09-01T07:48:58;4.43;;;3.97;;
8665;SDS011;4370;48.916;8.380;2022-09-01T07:51:25;4.05;;;3.75;;
8665;SDS011;4370;48.916;8.380;2022-09-01T07:53:52;5.45;;;4.18;;
8665;SDS011;4370;48.916;8.380;2022-09-01T07:56:19;4.60;;;4.20;;
8665;SDS011;4370;48.916;8.380;2022-09-01T07:58:47;7.28;;;4.85;;
8665;SDS011;4370;48.916;8.380;2022-09-01T08:01:15;7.07;;;5.30;;
8665;SDS011;4370;48.916;8.380;2022-09-01T08:03:43;7.57;;;4.88;;
8665;SDS011;4370;48.916;8.380;2022-09-01T08:06:12;6.53;;;5.82;;
8665;SDS011;4370;48.916;8.380;2022-09-01T08:08:43;6.15;;;5.55;;
8665;SDS011;4370;48.916;8.380;2022-09-01T08:11:09;7.10;;;6.25;;
8665;SDS011;4370;48.916;8.380;2022-09-01T08:13:41;9.20;;;6.57;;
8665;SDS011;4370;48.916;8.380;2022-09-01T08:16:06;7.83;;;7.03;;
8665;SDS011;4370;48.916;8.380;2022-09-01T08:18:33;9.40;;;7.07;;
8665;SDS011;4370;48.916;8.380;2022-09-01T08:20:59;8.60;;;6.73;;
8665;SDS011;4370;48.916;8.380;2022-09-01T08:23:25;9.53;;;6.40;;
8665;SDS011;4370;48.916;8.380;2022-09-01T08:25:51;7.70;;;6.00;;
8665;SDS011;4370;48.916;8.380;2022-09-01T08:28:17;8.83;;;6.43;;
8665;SDS011;4370;48.916;8.380;2022-09-01T08:30:44;8.03;;;6.90;;
8665;SDS011;4370;48.916;8.380;2022-09-01T08:33:11;8.27;;;5.40;;
8665;SDS011;4370;48.916;8.380;2022-09-01T08:35:41;7.40;;;5.57;;
8665;SDS011;4370;48.916;8.380;2022-09-01T08:38:08;6.67;;;5.97;;
8665;SDS011;4370;48.916;8.380;2022-09-01T08:40:34;6.97;;;5.80;;
8665;SDS011;4370;48.916;8.380;2022-09-01T08:46:23;8.20;;;6.90;;
8665;SDS011;4370;48.916;8.380;2022-09-01T08:48:57;8.60;;;6.57;;
8665;SDS011;4370;48.916;8.380;2022-09-01T08:51:26;7.90;;;6.40;;
8665;SDS011;4370;48.916;8.380;2022-09-01T08:56:37;6.57;;;5.30;;
8665;SDS011;4370;48.916;8.380;2022-09-01T08:59:04;5.97;;;5.37;;
8665;SDS011;4370;48.916;8.380;2022-09-01T09:01:39;5.67;;;5.03;;
8665;SDS011;4370;48.916;8.380;2022-09-01T09:09:40;5.53;;;4.20;;
8665;SDS011;4370;48.916;8.380;2022-09-01T09:12:12;5.07;;;4.27;;
8665;SDS011;4370;48.916;8.380;2022-09-01T09:17:43;4.57;;;4.13;;
8665;SDS011;4370;48.916;8.380;2022-09-01T09:20:13;4.07;;;3.60;;
8665;SDS011;4370;48.916;8.380;2022-09-01T09:22:40;3.97;;;3.40;;
8665;SDS011;4370;48.916;8.380;2022-09-01T09:25:09;6.17;;;3.67;;
8665;SDS011;4370;48.916;8.380;2022-09-01T09:27:40;4.97;;;3.63;;
8665;SDS011;4370;48.916;8.380;2022-09-01T09:30:12;3.73;;;3.27;;
8665;SDS011;4370;48.916;8.380;2022-09-01T09:32:52;3.60;;;3.30;;
8665;SDS011;4370;48.916;8.380;2022-09-01T09:35:35;3.60;;;3.30;;
8665;SDS011;4370;48.916;8.380;2022-09-01T09:43:34;3.57;;;3.27;;
8665;SDS011;4370;48.916;8.380;2022-09-01T09:51:51;3.33;;;2.90;;
8665;SDS011;4370;48.916;8.380;2022-09-01T09:56:48;3.00;;;2.80;;
8665;SDS011;4370;48.916;8.380;2022-09-01T10:02:15;2.90;;;2.70;;
8665;SDS011;4370;48.916;8.380;2022-09-01T10:04:56;3.40;;;3.10;;
8665;SDS011;4370;48.916;8.380;2022-09-01T10:12:52;3.10;;;2.80;;
8665;SDS011;4370;48.916;8.380;2022-09-01T10:15:19;6.47;;;2.97;;
8665;SDS011;4370;48.916;8.380;2022-09-01T10:17:47;3.50;;;3.20;;
8665;SDS011;4370;48.916;8.380;2022-09-01T10:20:20;2.87;;;2.67;;
8665;SDS011;4370;48.916;8.380;2022-09-01T10:22:50;3.33;;;2.93;;
8665;SDS011;4370;48.916;8.380;2022-09-01T10:25:17;3.17;;;2.80;;
8665;SDS011;4370;48.916;8.380;2022-09-01T10:27:50;3.20;;;2.90;;
8665;SDS011;4370;48.916;8.380;2022-09-01T10:30:22;5.70;;;3.27;;
8665;SDS011;4370;48.916;8.380;2022-09-01T10:32:49;5.87;;;2.73;;
8665;SDS011;4370;48.916;8.380;2022-09-01T10:35:17;3.97;;;3.30;;
8665;SDS011;4370;48.916;8.380;2022-09-01T10:37:47;5.10;;;2.80;;
8665;SDS011;4370;48.916;8.380;2022-09-01T10:40:34;3.77;;;3.00;;
8665;SDS011;4370;48.916;8.380;2022-09-01T10:48:43;3.40;;;2.90;;
8665;SDS011;4370;48.916;8.380;2022-09-01T10:53:40;3.80;;;3.50;;
8665;SDS011;4370;48.916;8.380;2022-09-01T11:04:17;3.70;;;3.28;;
8665;SDS011;4370;48.916;8.380;2022-09-01T11:06:52;4.82;;;3.30;;
8665;SDS011;4370;48.916;8.380;2022-09-01T11:09:26;3.47;;;3.03;;
8665;SDS011;4370;48.916;8.380;2022-09-01T11:14:46;3.45;;;3.15;;
8665;SDS011;4370;48.916;8.380;2022-09-01T11:22:25;3.22;;;3.00;;
8665;SDS011;4370;48.916;8.380;2022-09-01T11:25:29;4.47;;;3.85;;
8665;SDS011;4370;48.916;8.380;2022-09-01T11:28:02;3.90;;;3.35;;
8665;SDS011;4370;48.916;8.380;2022-09-01T11:36:22;4.28;;;3.65;;
8665;SDS011;4370;48.916;8.380;2022-09-01T11:45:11;3.60;;;3.30;;
8665;SDS011;4370;48.916;8.380;2022-09-01T11:47:34;4.77;;;4.00;;
8665;SDS011;4370;48.916;8.380;2022-09-01T11:50:21;4.73;;;3.50;;
8665;SDS011;4370;48.916;8.380;2022-09-01T11:52:58;5.10;;;3.70;;
8665;SDS011;4370;48.916;8.380;2022-09-01T11:55:35;4.07;;;3.67;;
8665;SDS011;4370;48.916;8.380;2022-09-01T11:58:03;5.17;;;3.40;;
8665;SDS011;4370;48.916;8.380;2022-09-01T12:00:32;4.10;;;3.40;;
8665;SDS011;4370;48.916;8.380;2022-09-01T12:03:04;3.83;;;3.50;;
8665;SDS011;4370;48.916;8.380;2022-09-01T12:05:43;3.87;;;3.57;;
8665;SDS011;4370;48.916;8.380;2022-09-01T12:08:11;3.97;;;3.50;;
8665;SDS011;4370;48.916;8.380;2022-09-01T12:10:38;5.30;;;3.87;;
8665;SDS011;4370;48.916;8.380;2022-09-01T12:13:11;3.97;;;3.57;;
8665;SDS011;4370;48.916;8.380;2022-09-01T12:15:42;4.10;;;3.40;;
8665;SDS011;4370;48.916;8.380;2022-09-01T12:18:20;3.28;;;2.95;;
8665;SDS011;4370;48.916;8.380;2022-09-01T12:20:49;3.93;;;3.53;;
8665;SDS011;4370;48.916;8.380;2022-09-01T12:23:27;6.07;;;3.20;;
8665;SDS011;4370;48.916;8.380;2022-09-01T12:26:04;6.22;;;3.55;;
8665;SDS011;4370;48.916;8.380;2022-09-01T12:28:49;5.70;;;3.50;;
8665;SDS011;4370;48.916;8.380;2022-09-01T12:31:18;3.47;;;3.00;;
8665;SDS011;4370;48.916;8.380;2022-09-01T12:33:46;3.70;;;3.40;;
8665;SDS011;4370;48.916;8.380;2022-09-01T12:36:28;4.25;;;3.30;;
8665;SDS011;4370;48.916;8.380;2022-09-01T12:41:42;3.33;;;3.03;;
8665;SDS011;4370;48.916;8.380;2022-09-01T12:44:28;4.07;;;3.30;;
8665;SDS011;4370;48.916;8.380;2022-09-01T12:47:05;6.90;;;3.38;;
8665;SDS011;4370;48.916;8.380;2022-09-01T12:49:34;3.47;;;3.17;;
8665;SDS011;4370;48.916;8.380;2022-09-01T12:52:05;4.00;;;3.15;;
8665;SDS011;4370;48.916;8.380;2022-09-01T12:54:34;3.50;;;3.20;;
8665;SDS011;4370;48.916;8.380;2022-09-01T12:57:00;4.50;;;3.50;;
8665;SDS011;4370;48.916;8.380;2022-09-01T12:59:26;4.30;;;3.13;;
8665;SDS011;4370;48.916;8.380;2022-09-01T13:01:51;3.50;;;3.20;;
8665;SDS011;4370;48.916;8.380;2022-09-01T13:06:43;4.70;;;3.80;;
8665;SDS011;4370;48.916;8.380;2022-09-01T13:09:08;6.57;;;3.67;;
8665;SDS011;4370;48.916;8.380;2022-09-01T13:11:34;3.73;;;3.40;;
8665;SDS011;4370;48.916;8.380;2022-09-01T13:14:00;3.53;;;3.23;;
8665;SDS011;4370;48.916;8.380;2022-09-01T13:16:26;3.60;;;3.30;;
8665;SDS011;4370;48.916;8.380;2022-09-01T13:18:51;5.47;;;3.40;;
8665;SDS011;4370;48.916;8.380;2022-09-01T13:21:17;3.50;;;3.20;;
8665;SDS011;4370;48.916;8.380;2022-09-01T13:23:42;4.10;;;3.20;;
8665;SDS011;4370;48.916;8.380;2022-09-01T13:26:08;4.60;;;3.00;;
8665;SDS011;4370;48.916;8.380;2022-09-01T13:28:35;4.40;;;3.37;;
8665;SDS011;4370;48.916;8.380;2022-09-01T13:31:01;3.23;;;2.80;;
8665;SDS011;4370;48.916;8.380;2022-09-01T13:33:29;3.87;;;3.17;;
8665;SDS011;4370;48.916;8.380;2022-09-01T13:35:55;3.80;;;3.00;;
8665;SDS011;4370;48.916;8.380;2022-09-01T13:38:21;3.73;;;3.23;;
8665;SDS011;4370;48.916;8.380;2022-09-01T13:40:47;3.33;;;3.03;;
8665;SDS011;4370;48.916;8.380;2022-09-01T13:43:15;4.37;;;3.00;;
8665;SDS011;4370;48.916;8.380;2022-09-01T13:45:43;3.10;;;2.80;;
8665;SDS011;4370;48.916;8.380;2022-09-01T13:48:09;3.33;;;2.87;;
8665;SDS011;4370;48.916;8.380;2022-09-01T13:50:35;3.00;;;2.80;;
8665;SDS011;4370;48.916;8.380;2022-09-01T13:53:02;3.30;;;2.77;;
8665;SDS011;4370;48.916;8.380;2022-09-01T13:55:29;3.37;;;2.57;;
8665;SDS011;4370;48.916;8.380;2022-09-01T13:57:57;4.60;;;2.90;;
8665;SDS011;4370;48.916;8.380;2022-09-01T14:00:33;2.73;;;2.53;;
8665;SDS011;4370;48.916;8.380;2022-09-01T14:03:04;3.30;;;3.00;;
8665;SDS011;4370;48.916;8.380;2022-09-01T14:05:34;3.17;;;2.90;;
8665;SDS011;4370;48.916;8.380;2022-09-01T14:08:01;3.17;;;2.87;;
8665;SDS011;4370;48.916;8.380;2022-09-01T14:10:29;4.33;;;3.03;;
8665;SDS011;4370;48.916;8.380;2022-09-01T14:12:59;5.40;;;3.57;;
8665;SDS011;4370;48.916;8.380;2022-09-01T14:15:25;4.77;;;3.20;;
8665;SDS011;4370;48.916;8.380;2022-09-01T14:17:52;3.53;;;3.00;;
8665;SDS011;4370;48.916;8.380;2022-09-01T14:20:20;2.97;;;2.63;;
8665;SDS011;4370;48.916;8.380;2022-09-01T14:22:53;3.13;;;2.70;;
8665;SDS011;4370;48.916;8.380;2022-09-01T14:25:19;3.23;;;2.80;;
8665;SDS011;4370;48.916;8.380;2022-09-01T14:27:45;2.97;;;2.70;;
8665;SDS011;4370;48.916;8.380;2022-09-01T14:30:17;3.17;;;2.87;;
8665;SDS011;4370;48.916;8.380;2022-09-01T14:32:45;2.90;;;2.60;;
8665;SDS011;4370;48.916;8.380;2022-09-01T14:35:11;3.03;;;2.70;;
8665;SDS011;4370;48.916;8.380;2022-09-01T14:37:38;3.20;;;2.60;;
8665;SDS011;4370;48.916;8.380;2022-09-01T14:40:04;3.77;;;2.70;;
8665;SDS011;4370;48.916;8.380;2022-09-01T14:42:31;2.90;;;2.57;;
8665;SDS011;4370;48.916;8.380;2022-09-01T14:44:57;2.30;;;2.10;;
8665;SDS011;4370;48.916;8.380;2022-09-01T14:47:22;2.60;;;2.40;;
8665;SDS011;4370;48.916;8.380;2022-09-01T14:49:50;3.17;;;2.50;;
8665;SDS011;4370;48.916;8.380;2022-09-01T14:52:17;2.93;;;2.50;;
8665;SDS011;4370;48.916;8.380;2022-09-01T14:54:43;2.40;;;2.20;;
8665;SDS011;4370;48.916;8.380;2022-09-01T14:57:09;2.60;;;2.33;;
8665;SDS011;4370;48.916;8.380;2022-09-01T14:59:35;2.50;;;2.30;;
8665;SDS011;4370;48.916;8.380;2022-09-01T15:02:01;2.60;;;2.40;;
8665;SDS011;4370;48.916;8.380;2022-09-01T15:04:27;4.47;;;2.60;;
8665;SDS011;4370;48.916;8.380;2022-09-01T15:06:53;3.93;;;2.37;;
8665;SDS011;4370;48.916;8.380;2022-09-01T15:09:19;2.90;;;2.40;;
8665;SDS011;4370;48.916;8.380;2022-09-01T15:11:45;2.50;;;2.30;;
8665;SDS011;4370;48.916;8.380;2022-09-01T15:14:11;3.63;;;2.57;;
8665;SDS011;4370;48.916;8.380;2022-09-01T15:16:37;3.43;;;2.70;;
8665;SDS011;4370;48.916;8.380;2022-09-01T15:19:06;3.38;;;2.67;;
8665;SDS011;4370;48.916;8.380;2022-09-01T15:21:33;3.10;;;2.80;;
8665;SDS011;4370;48.916;8.380;2022-09-01T15:24:00;3.73;;;2.70;;
8665;SDS011;4370;48.916;8.380;2022-09-01T15:26:27;2.53;;;2.33;;
8665;SDS011;4370;48.916;8.380;2022-09-01T15:28:53;3.17;;;2.67;;
8665;SDS011;4370;48.916;8.380;2022-09-01T15:31:20;3.27;;;2.70;;
8665;SDS011;4370;48.916;8.380;2022-09-01T15:33:48;3.40;;;2.60;;
8665;SDS011;4370;48.916;8.380;2022-09-01T15:36:18;5.53;;;2.60;;
8665;SDS011;4370;48.916;8.380;2022-09-01T15:38:46;4.47;;;2.70;;
8665;SDS011;4370;48.916;8.380;2022-09-01T15:41:19;4.37;;;2.70;;
8665;SDS011;4370;48.916;8.380;2022-09-01T15:43:55;4.83;;;2.60;;
8665;SDS011;4370;48.916;8.380;2022-09-01T15:46:22;5.47;;;2.80;;
8665;SDS011;4370;48.916;8.380;2022-09-01T15:48:55;2.80;;;2.60;;
8665;SDS011;4370;48.916;8.380;2022-09-01T15:53:48;3.13;;;2.70;;
8665;SDS011;4370;48.916;8.380;2022-09-01T15:56:18;2.77;;;2.50;;
8665;SDS011;4370;48.916;8.380;2022-09-01T15:58:44;3.60;;;2.50;;
8665;SDS011;4370;48.916;8.380;2022-09-01T16:01:10;2.50;;;2.30;;
8665;SDS011;4370;48.916;8.380;2022-09-01T16:03:35;3.50;;;2.50;;
8665;SDS011;4370;48.916;8.380;2022-09-01T16:06:02;3.27;;;2.87;;
8665;SDS011;4370;48.916;8.380;2022-09-01T16:08:28;2.80;;;2.60;;
8665;SDS011;4370;48.916;8.380;2022-09-01T16:10:53;3.33;;;2.60;;
8665;SDS011;4370;48.916;8.380;2022-09-01T16:13:20;2.70;;;2.50;;
8665;SDS011;4370;48.916;8.380;2022-09-01T16:15:54;3.00;;;2.20;;
8665;SDS011;4370;48.916;8.380;2022-09-01T16:18:36;2.90;;;2.60;;
8665;SDS011;4370;48.916;8.380;2022-09-01T16:21:23;2.80;;;2.60;;
8665;SDS011;4370;48.916;8.380;2022-09-01T16:24:03;2.60;;;2.40;;
8665;SDS011;4370;48.916;8.380;2022-09-01T16:26:32;3.10;;;2.73;;
8665;SDS011;4370;48.916;8.380;2022-09-01T16:29:00;2.70;;;2.50;;
8665;SDS011;4370;48.916;8.380;2022-09-01T16:31:31;3.17;;;2.87;;
8665;SDS011;4370;48.916;8.380;2022-09-01T16:33:58;2.80;;;2.60;;
8665;SDS011;4370;48.916;8.380;2022-09-01T16:39:14;2.67;;;2.47;;
8665;SDS011;4370;48.916;8.380;2022-09-01T16:41:52;2.63;;;2.43;;
8665;SDS011;4370;48.916;8.380;2022-09-01T16:50:02;3.30;;;2.40;;
8665;SDS011;4370;48.916;8.380;2022-09-01T16:53:06;2.90;;;2.70;;